Time;durP1;ratioP1;P1;durP2;ratioP2;P2;SDS_P1;SDS_P2;PMS_P1;PMS_P2;Temp;Humidity;BMP_temperature;BMP_pressure;BME280_temperature;BME280_humidity;BME280_pressure;Samples;Min_cycle;Max_cycle;Signal;HPM_P1;HPM_P2
2022/03/01 00:01:14;;;;;;;2.50;1.43;;;20.40;51.40;;;;;;4993544;28;20206;-82
2022/03/01 00:03:40;;;;;;;11.00;1.60;;;20.40;50.70;;;;;;4992322;28;20491;-83
2022/03/01 00:06:06;;;;;;;14.57;2.00;;;20.70;50.70;;;;;;4991161;28;20171;-80
2022/03/01 00:08:31;;;;;;;14.20;1.80;;;20.50;51.10;;;;;;4991242;28;20174;-80
2022/03/01 00:10:57;;;;;;;6.37;1.97;;;20.50;51.00;;;;;;4992541;28;20713;-79
2022/03/01 00:13:23;;;;;;;12.60;1.90;;;20.40;52.50;;;;;;4991548;28;20206;-80
2022/03/01 00:15:48;;;;;;;3.00;1.80;;;20.60;51.10;;;;;;4991466;28;20202;-78
2022/03/01 00:18:14;;;;;;;3.03;1.60;;;20.50;51.70;;;;;;4991398;28;20936;-80
2022/03/01 00:20:40;;;;;;;3.90;1.60;;;20.50;51.10;;;;;;4992631;28;20227;-80
2022/03/01 00:23:06;;;;;;;5.17;1.60;;;20.30;52.20;;;;;;4992508;28;20191;-80
2022/03/01 00:25:31;;;;;;;5.30;1.87;;;20.50;52.20;;;;;;4975450;28;20607;-80
2022/03/01 00:27:57;;;;;;;2.10;1.20;;;20.50;51.00;;;;;;4992483;28;20513;-80
2022/03/01 00:30:23;;;;;;;2.87;1.50;;;20.50;54.00;;;;;;4992070;28;20618;-81
2022/03/01 00:32:49;;;;;;;3.87;1.40;;;20.50;52.60;;;;;;4974896;28;20470;-80
2022/03/01 00:35:15;;;;;;;3.50;1.67;;;20.50;52.10;;;;;;4993269;28;20262;-80
2022/03/01 00:37:41;;;;;;;2.27;1.40;;;20.80;54.40;;;;;;4981358;28;20221;-80
2022/03/01 00:40:07;;;;;;;3.43;1.27;;;20.50;53.80;;;;;;4981485;28;20448;-81
2022/03/01 00:42:33;;;;;;;2.43;1.43;;;20.50;53.50;;;;;;4982129;28;20253;-81
2022/03/01 00:44:58;;;;;;;2.53;1.37;;;20.50;53.30;;;;;;4982161;28;20917;-80
2022/03/01 00:47:24;;;;;;;7.43;1.40;;;20.70;53.00;;;;;;5000158;28;20182;-81
2022/03/01 00:49:50;;;;;;;7.20;1.60;;;20.50;53.30;;;;;;4999782;28;20191;-81
2022/03/01 00:52:15;;;;;;;12.77;1.67;;;20.70;54.30;;;;;;4983141;28;20237;-81
2022/03/01 00:54:41;;;;;;;2.93;1.30;;;20.80;54.90;;;;;;5001063;28;20178;-81
2022/03/01 00:57:06;;;;;;;5.77;1.30;;;20.50;52.40;;;;;;4982839;28;20181;-81
2022/03/01 00:59:32;;;;;;;5.80;1.20;;;20.40;53.10;;;;;;4982440;28;20198;-81
2022/03/01 01:01:58;;;;;;;2.27;1.30;;;20.40;52.50;;;;;;4982650;28;20635;-81
2022/03/01 01:04:23;;;;;;;5.70;1.30;;;20.50;52.80;;;;;;4982695;28;20659;-84
2022/03/01 01:06:49;;;;;;;4.87;1.63;;;20.90;52.80;;;;;;4983385;28;20190;-83
2022/03/01 01:09:15;;;;;;;1.93;1.20;;;20.70;52.70;;;;;;4982936;28;20171;-82
2022/03/01 01:11:42;;;;;;;1.93;1.10;;;20.80;54.60;;;;;;5000994;28;20635;-82
2022/03/01 01:14:07;;;;;;;3.70;1.40;;;20.40;54.70;;;;;;4983433;28;20171;-83
2022/03/01 01:16:33;;;;;;;4.70;1.57;;;20.40;52.30;;;;;;4982610;28;20922;-83
2022/03/01 01:18:59;;;;;;;2.27;1.30;;;20.20;52.90;;;;;;4982921;28;20179;-83
2022/03/01 01:22:39;;;;;;;3.17;1.50;;;20.40;51.80;;;;;;4983518;28;20191;-82
2022/03/01 01:24:11;;;;;;;3.00;1.60;;;20.50;55.20;;;;;;5001678;28;20290;-83
2022/03/01 01:26:36;;;;;;;4.00;1.37;;;20.30;53.80;;;;;;4984149;28;20442;-83
2022/03/01 01:29:02;;;;;;;1.70;1.13;;;20.80;53.50;;;;;;4982346;28;20496;-84
2022/03/01 01:31:28;;;;;;;5.60;1.27;;;20.60;52.50;;;;;;4981867;28;20171;-83
2022/03/01 01:33:53;;;;;;;2.47;1.20;;;20.30;51.40;;;;;;4981876;28;20421;-83
2022/03/01 01:36:19;;;;;;;3.20;1.17;;;20.30;53.80;;;;;;4981685;28;20178;-82
2022/03/01 01:38:44;;;;;;;3.13;1.43;;;20.70;54.70;;;;;;4981062;28;20171;-83
2022/03/01 01:41:10;;;;;;;1.93;1.30;;;20.50;52.50;;;;;;4981187;28;20195;-85
2022/03/01 01:43:36;;;;;;;6.10;2.03;;;20.60;55.20;;;;;;4998878;28;20179;-84
2022/03/01 01:46:01;;;;;;;3.40;1.50;;;20.30;52.90;;;;;;4981035;28;20230;-82
2022/03/01 01:48:27;;;;;;;6.77;1.60;;;20.20;54.40;;;;;;4977694;28;20809;-84
2022/03/01 01:50:53;;;;;;;3.40;1.43;;;20.20;54.30;;;;;;4977796;28;20198;-85
2022/03/01 01:53:19;;;;;;;12.43;1.60;;;20.30;52.70;;;;;;4977876;28;20203;-85
2022/03/01 01:55:45;;;;;;;2.13;1.30;;;20.30;51.20;;;;;;4977474;28;20182;-84
2022/03/01 01:58:10;;;;;;;1.83;1.10;;;20.30;54.10;;;;;;4977447;28;20411;-83
2022/03/01 02:00:36;;;;;;;4.27;1.40;;;20.50;54.20;;;;;;4976911;28;20199;-82
2022/03/01 02:03:02;;;;;;;4.27;1.40;;;20.30;54.50;;;;;;4977366;28;20655;-81
2022/03/01 02:05:29;;;;;;;5.60;1.60;;;20.30;54.70;;;;;;4977240;28;20179;-82
2022/03/01 02:07:55;;;;;;;3.33;1.37;;;20.30;53.60;;;;;;4977240;28;20190;-82
2022/03/01 02:10:21;;;;;;;7.60;1.40;;;20.30;51.60;;;;;;4993920;28;20510;-82
2022/03/01 02:12:47;;;;;;;4.90;1.40;;;20.60;51.10;;;;;;4994519;28;20458;-82
2022/03/01 02:15:14;;;;;;;2.90;1.33;;;20.30;54.80;;;;;;4976962;28;20425;-82
2022/03/01 02:17:42;;;;;;;4.03;1.17;;;20.60;52.30;;;;;;4977175;28;20611;-82
2022/03/01 02:20:19;;;;;;;2.33;1.10;;;20.10;54.70;;;;;;4976463;28;20975;-80
2022/03/01 02:22:46;;;;;;;2.33;1.20;;;20.40;54.80;;;;;;4994562;28;20398;-80
2022/03/01 02:25:12;;;;;;;4.60;1.30;;;20.20;52.70;;;;;;4994531;28;20815;-80
2022/03/01 02:27:38;;;;;;;2.10;1.20;;;20.20;52.60;;;;;;4977328;28;20418;-81
2022/03/01 02:30:06;;;;;;;6.03;1.43;;;20.40;55.30;;;;;;4994030;28;20464;-81
2022/03/01 02:32:32;;;;;;;2.80;1.10;;;20.20;52.20;;;;;;4977010;28;20462;-81
2022/03/01 02:34:58;;;;;;;2.13;1.43;;;20.80;55.30;;;;;;4994592;28;20399;-80
2022/03/01 02:37:24;;;;;;;5.73;1.23;;;20.20;54.90;;;;;;4976987;28;20413;-81
2022/03/01 02:39:50;;;;;;;3.20;1.20;;;20.20;55.20;;;;;;4994078;28;20488;-81
2022/03/01 02:42:15;;;;;;;3.07;1.40;;;20.20;55.00;;;;;;4977402;28;20666;-81
2022/03/01 02:44:41;;;;;;;1.80;1.00;;;20.20;53.60;;;;;;4977415;28;20183;-82
2022/03/01 02:47:07;;;;;;;1.97;1.00;;;20.30;53.00;;;;;;4977805;28;20593;-80
2022/03/01 02:49:32;;;;;;;3.17;1.30;;;20.30;54.80;;;;;;4976931;28;20202;-81
2022/03/01 02:51:58;;;;;;;6.63;1.10;;;20.40;55.00;;;;;;4979775;28;20211;-80
2022/03/01 02:54:24;;;;;;;1.93;1.13;;;20.30;51.70;;;;;;4994243;28;20183;-79
2022/03/01 02:56:49;;;;;;;2.50;1.20;;;20.30;54.20;;;;;;4993896;28;20175;-81
2022/03/01 02:59:15;;;;;;;3.90;1.00;;;20.50;55.60;;;;;;4975800;28;20175;-82
2022/03/01 03:01:41;;;;;;;3.60;1.30;;;20.20;53.00;;;;;;4976505;28;20551;-82
2022/03/01 03:04:06;;;;;;;1.97;1.10;;;20.60;52.70;;;;;;4977361;28;20171;-80
2022/03/01 03:06:32;;;;;;;3.83;1.20;;;20.20;52.90;;;;;;4978770;28;20194;-80
2022/03/01 03:08:58;;;;;;;1.83;1.17;;;20.20;55.60;;;;;;4995589;28;20606;-79
2022/03/01 03:11:23;;;;;;;2.03;1.13;;;20.20;55.90;;;;;;4978787;28;20234;-83
2022/03/01 03:13:49;;;;;;;6.40;1.10;;;20.40;55.60;;;;;;4977457;28;20179;-82
2022/03/01 03:16:16;;;;;;;1.83;1.07;;;20.20;55.10;;;;;;4977552;28;20309;-81
2022/03/01 03:18:42;;;;;;;3.13;1.27;;;20.20;55.50;;;;;;4979731;28;20965;-82
2022/03/01 03:21:10;;;;;;;1.83;0.90;;;20.20;52.80;;;;;;4978936;28;20445;-82
2022/03/01 03:23:36;;;;;;;5.90;1.13;;;20.20;55.40;;;;;;4979274;28;20179;-80
2022/03/01 03:26:02;;;;;;;3.83;1.20;;;20.30;55.70;;;;;;4980415;28;20453;-82
2022/03/01 03:28:28;;;;;;;6.80;1.10;;;20.20;56.00;;;;;;4982042;28;20395;-82
2022/03/01 03:30:54;;;;;;;1.67;1.07;;;20.70;56.10;;;;;;4999039;28;20230;-83
2022/03/01 03:33:20;;;;;;;3.10;1.30;;;20.30;55.60;;;;;;4998448;28;20202;-83
2022/03/01 03:35:46;;;;;;;1.93;1.10;;;20.20;55.50;;;;;;4981580;28;20494;-83
2022/03/01 03:38:12;;;;;;;3.73;1.10;;;20.20;55.20;;;;;;4999586;28;20420;-83
2022/03/01 03:40:38;;;;;;;4.10;1.57;;;20.20;55.40;;;;;;4982653;28;20438;-83
2022/03/01 03:43:03;;;;;;;2.00;1.10;;;20.20;55.80;;;;;;4984037;28;20187;-82
2022/03/01 03:45:29;;;;;;;2.37;1.30;;;20.20;55.40;;;;;;4986082;28;20209;-82
2022/03/01 03:47:54;;;;;;;3.57;1.37;;;20.20;55.60;;;;;;4987876;28;20182;-82
2022/03/01 03:50:20;;;;;;;3.40;1.17;;;20.00;55.50;;;;;;5002845;28;20262;-82
2022/03/01 03:52:46;;;;;;;3.00;1.13;;;20.30;55.60;;;;;;5002023;28;20195;-82
2022/03/01 03:55:11;;;;;;;3.10;1.10;;;20.30;55.40;;;;;;4983511;28;20171;-81
2022/03/01 03:57:37;;;;;;;1.40;0.90;;;20.20;55.70;;;;;;4983889;28;20186;-81
2022/03/01 04:00:07;;;;;;;5.00;1.00;;;20.50;55.50;;;;;;5002248;28;20179;-80
2022/03/01 04:02:32;;;;;;;1.63;1.00;;;20.20;55.30;;;;;;5004174;28;20906;-81
2022/03/01 04:04:58;;;;;;;1.60;0.90;;;20.10;52.10;;;;;;5005237;28;20945;-81
2022/03/01 04:07:24;;;;;;;2.10;1.00;;;20.10;55.50;;;;;;5007337;28;20265;-81
2022/03/01 04:09:50;;;;;;;2.00;1.20;;;20.10;55.40;;;;;;4984343;28;20202;-80
2022/03/01 04:12:16;;;;;;;4.03;1.17;;;20.10;52.40;;;;;;4975271;28;20257;-81
2022/03/01 04:14:42;;;;;;;1.40;0.90;;;20.20;56.00;;;;;;4992987;28;20410;-80
2022/03/01 04:17:08;;;;;;;1.60;1.07;;;19.90;55.40;;;;;;4975499;28;20183;-78
2022/03/01 04:19:34;;;;;;;1.70;1.10;;;20.10;55.90;;;;;;4975316;28;20481;-80
2022/03/01 04:22:00;;;;;;;1.97;0.90;;;20.00;56.60;;;;;;4975331;28;20950;-81
2022/03/01 04:24:26;;;;;;;10.00;1.57;;;20.10;56.10;;;;;;4975154;28;20454;-82
2022/03/01 04:26:51;;;;;;;2.20;1.20;;;20.20;54.30;;;;;;4975543;28;20425;-80
2022/03/01 04:29:17;;;;;;;2.90;1.20;;;20.20;55.80;;;;;;4974733;28;20194;-79
2022/03/01 04:31:43;;;;;;;13.90;1.47;;;20.20;55.80;;;;;;4992854;28;20210;-82
2022/03/01 04:34:09;;;;;;;6.10;1.13;;;20.40;57.40;;;;;;4974687;28;20278;-82
2022/03/01 04:36:35;;;;;;;5.73;1.20;;;20.20;56.30;;;;;;4992499;28;20448;-83
2022/03/01 04:39:00;;;;;;;2.07;1.10;;;20.30;56.30;;;;;;4974714;28;20183;-82
2022/03/01 04:41:26;;;;;;;6.50;0.90;;;20.30;55.90;;;;;;4993143;28;20578;-82
2022/03/01 04:43:52;;;;;;;8.67;1.60;;;20.20;56.60;;;;;;4992517;28;20658;-83
2022/03/01 04:46:18;;;;;;;3.00;1.10;;;20.10;56.50;;;;;;4975042;28;20223;-80
2022/03/01 04:48:45;;;;;;;2.43;1.40;;;20.30;56.30;;;;;;4974898;28;20175;-81
2022/03/01 04:51:10;;;;;;;5.87;1.30;;;20.80;56.40;;;;;;4992431;28;20985;-83
2022/03/01 04:53:36;;;;;;;3.23;1.13;;;20.40;56.50;;;;;;4993073;28;20458;-82
2022/03/01 04:56:02;;;;;;;1.97;1.07;;;20.10;56.20;;;;;;4976494;28;20175;-82
2022/03/01 04:58:28;;;;;;;1.60;1.23;;;20.30;54.70;;;;;;4976324;28;20251;-82
2022/03/01 05:00:54;;;;;;;2.10;1.10;;;20.30;57.20;;;;;;4993164;28;20492;-81
2022/03/01 05:03:24;;;;;;;9.40;1.20;;;20.30;56.60;;;;;;4975191;28;20422;-83
2022/03/01 05:05:49;;;;;;;1.73;0.90;;;20.30;53.20;;;;;;4974895;28;21021;-79
2022/03/01 05:08:15;;;;;;;1.93;1.03;;;20.40;57.20;;;;;;4975633;28;20468;-80
2022/03/01 05:10:41;;;;;;;4.13;1.20;;;20.20;57.10;;;;;;4991828;28;20206;-81
2022/03/01 05:13:06;;;;;;;5.17;0.93;;;20.10;56.60;;;;;;4992384;28;20729;-81
2022/03/01 05:15:32;;;;;;;1.77;1.13;;;20.10;56.80;;;;;;4975658;28;20188;-81
2022/03/01 05:17:59;;;;;;;1.50;1.07;;;20.30;56.90;;;;;;4992049;28;20180;-79
2022/03/01 05:20:25;;;;;;;16.07;9.07;;;20.30;54.70;;;;;;4991658;28;20183;-78
2022/03/01 05:22:52;;;;;;;16.43;8.40;;;;;;;;;;4992880;28;20438;-78
2022/03/01 05:25:20;;;;;;;11.53;7.47;;;;;;;;;;4978531;28;20414;-78
2022/03/01 05:27:48;;;;;;;16.37;6.50;;;;;;;;;;4978708;28;20926;-79
2022/03/01 05:30:14;;;;;;;18.93;6.10;;;16.70;41.70;;;;;;4978057;28;20536;-79
2022/03/01 05:32:43;;;;;;;11.23;5.60;;;17.40;42.00;;;;;;4979943;28;20508;-78
2022/03/01 05:35:13;;;;;;;10.03;4.80;;;17.90;41.30;;;;;;4980709;28;20449;-79
2022/03/01 05:37:39;;;;;;;9.80;5.30;;;18.30;42.10;;;;;;5000527;28;20436;-79
2022/03/01 05:40:06;;;;;;;16.53;5.17;;;18.40;42.20;;;;;;4999477;28;20497;-81
2022/03/01 05:42:32;;;;;;;15.60;5.13;;;18.60;42.40;;;;;;4981934;28;20716;-80
2022/03/01 05:44:59;;;;;;;16.80;5.30;;;18.70;42.70;;;;;;4998647;28;20481;-78
2022/03/01 05:47:26;;;;;;;9.00;4.43;;;18.80;42.90;;;;;;4981187;28;20594;-78
2022/03/01 05:49:55;;;;;;;8.60;4.20;;;18.90;43.10;;;;;;4980556;28;20438;-78
2022/03/01 05:52:21;;;;;;;7.80;4.53;;;19.00;43.40;;;;;;4999527;28;21050;-77
2022/03/01 05:54:47;;;;;;;10.90;4.10;;;19.00;43.40;;;;;;5000356;28;20433;-78
2022/03/01 05:57:13;;;;;;;8.63;3.57;;;18.90;43.40;;;;;;4998789;28;20524;-77
2022/03/01 05:59:39;;;;;;;8.00;4.00;;;19.20;43.80;;;;;;4980953;28;20464;-77
2022/03/01 06:02:04;;;;;;;9.10;4.03;;;19.20;43.80;;;;;;4980983;28;20437;-79
2022/03/01 06:04:30;;;;;;;11.20;4.27;;;19.10;43.90;;;;;;4982229;28;20233;-78
2022/03/01 06:06:56;;;;;;;6.13;4.00;;;19.10;44.00;;;;;;4980919;28;20187;-79
2022/03/01 06:09:21;;;;;;;6.63;4.50;;;19.20;44.10;;;;;;4981153;28;20206;-78
2022/03/01 06:11:47;;;;;;;8.33;4.50;;;19.20;44.20;;;;;;4988133;28;20221;-81
2022/03/01 06:14:13;;;;;;;10.23;4.70;;;19.30;44.30;;;;;;4980415;28;20178;-79
2022/03/01 06:16:39;;;;;;;13.93;4.30;;;19.40;44.10;;;;;;5002948;28;20253;-79
2022/03/01 06:19:04;;;;;;;13.17;4.13;;;19.50;44.30;;;;;;4999054;28;20419;-80
2022/03/01 06:21:30;;;;;;;8.93;4.00;;;19.50;44.80;;;;;;5022361;28;20186;-80
2022/03/01 06:23:57;;;;;;;8.83;3.63;;;19.60;44.20;;;;;;4997779;28;20177;-81
2022/03/01 06:26:23;;;;;;;9.23;4.30;;;19.60;44.30;;;;;;4980299;28;20426;-80
2022/03/01 06:28:50;;;;;;;8.90;4.30;;;19.60;44.20;;;;;;4997306;28;20517;-78
2022/03/01 06:31:15;;;;;;;7.10;4.20;;;19.60;44.30;;;;;;4997397;28;20427;-81
2022/03/01 06:33:41;;;;;;;10.87;4.23;;;19.60;44.30;;;;;;4979741;28;20484;-80
2022/03/01 06:36:07;;;;;;;10.40;4.20;;;19.60;44.30;;;;;;4998655;28;20175;-81
2022/03/01 06:38:33;;;;;;;8.23;4.20;;;19.70;44.70;;;;;;4980464;28;20422;-82
2022/03/01 06:40:59;;;;;;;9.13;4.10;;;19.70;44.50;;;;;;4998975;28;20427;-82
2022/03/01 06:43:25;;;;;;;10.17;3.90;;;19.60;44.70;;;;;;4998396;28;20233;-81
2022/03/01 06:45:51;;;;;;;9.67;4.30;;;19.70;44.50;;;;;;4967916;28;20210;-83
2022/03/01 06:48:16;;;;;;;6.77;4.07;;;19.80;44.80;;;;;;5000814;28;20785;-82
2022/03/01 06:50:42;;;;;;;8.63;4.20;;;19.70;44.70;;;;;;4983180;28;20199;-82
2022/03/01 06:53:08;;;;;;;6.83;3.93;;;19.70;44.60;;;;;;4983824;28;20242;-79
2022/03/01 06:55:34;;;;;;;7.93;3.93;;;19.70;44.70;;;;;;4984187;28;20175;-79
2022/03/01 06:57:59;;;;;;;9.60;4.07;;;19.70;44.70;;;;;;4986813;28;20186;-79
2022/03/01 07:00:25;;;;;;;6.43;4.00;;;19.90;45.00;;;;;;4998472;28;20191;-78
2022/03/01 07:02:51;;;;;;;11.03;4.53;;;19.80;44.80;;;;;;5005221;28;20646;-78
2022/03/01 07:05:17;;;;;;;6.40;4.33;;;19.90;45.00;;;;;;5020649;28;20181;-79
2022/03/01 07:07:43;;;;;;;11.63;3.77;;;19.80;45.00;;;;;;4985092;28;20187;-81
2022/03/01 07:10:11;;;;;;;8.50;4.10;;;19.90;44.80;;;;;;5010059;28;20460;-80
2022/03/01 07:12:38;;;;;;;9.80;3.90;;;19.90;44.90;;;;;;4994767;28;20877;-79
2022/03/01 07:15:05;;;;;;;9.53;3.93;;;20.00;45.00;;;;;;5016942;28;20417;-80
2022/03/01 07:17:31;;;;;;;7.03;3.70;;;19.90;44.80;;;;;;4991445;28;20415;-79
2022/03/01 07:19:56;;;;;;;7.77;3.80;;;20.00;45.00;;;;;;4996851;28;20521;-79
2022/03/01 07:22:22;;;;;;;9.20;4.17;;;20.00;45.00;;;;;;4997402;28;20183;-80
2022/03/01 07:24:48;;;;;;;12.83;4.13;;;20.10;45.10;;;;;;4980866;28;20183;-80
2022/03/01 07:27:14;;;;;;;7.37;3.90;;;20.10;45.30;;;;;;4977795;28;20476;-80
2022/03/01 07:29:39;;;;;;;9.23;4.87;;;20.10;45.10;;;;;;4996586;28;20286;-79
2022/03/01 07:32:06;;;;;;;10.43;3.63;;;20.20;45.40;;;;;;4994700;28;20209;-80
2022/03/01 07:34:32;;;;;;;7.20;3.90;;;20.20;45.40;;;;;;4997390;28;20658;-80
2022/03/01 07:36:58;;;;;;;9.60;4.40;;;20.30;45.50;;;;;;5013064;28;20421;-79
2022/03/01 07:39:24;;;;;;;7.77;3.33;;;20.30;45.40;;;;;;5013838;28;20967;-79
2022/03/01 07:41:50;;;;;;;6.13;3.70;;;20.30;45.40;;;;;;4995885;28;20654;-79
2022/03/01 07:44:17;;;;;;;8.63;3.87;;;20.30;45.40;;;;;;4998647;28;20414;-79
2022/03/01 07:46:43;;;;;;;8.30;3.97;;;20.30;45.40;;;;;;4977028;28;20422;-79
2022/03/01 07:49:09;;;;;;;10.00;3.87;;;20.30;45.40;;;;;;4997252;28;20414;-80
2022/03/01 07:51:35;;;;;;;11.53;3.37;;;20.30;45.50;;;;;;4979130;28;20948;-80
2022/03/01 07:54:01;;;;;;;6.27;3.43;;;20.20;45.40;;;;;;4978725;28;20430;-80
2022/03/01 07:56:26;;;;;;;6.07;3.40;;;20.40;45.70;;;;;;4976351;28;20180;-81
2022/03/01 07:58:52;;;;;;;6.77;3.30;;;20.30;45.90;;;;;;4981650;28;20178;-81
2022/03/01 08:01:19;;;;;;;7.70;3.97;;;20.60;46.70;;;;;;4984331;28;20199;-82
2022/03/01 08:03:45;;;;;;;7.40;3.23;;;20.50;47.00;;;;;;4985129;28;20426;-82
2022/03/01 08:06:11;;;;;;;12.23;3.37;;;20.50;46.90;;;;;;4984222;28;20461;-81
2022/03/01 08:08:37;;;;;;;9.40;3.60;;;20.50;47.00;;;;;;4983903;28;20206;-80
2022/03/01 08:11:04;;;;;;;7.13;3.87;;;20.50;46.70;;;;;;4981536;28;20264;-80
2022/03/01 08:13:31;;;;;;;7.87;4.07;;;20.50;46.60;;;;;;4987475;28;20458;-82
2022/03/01 08:15:56;;;;;;;8.10;3.80;;;20.60;46.70;;;;;;4988572;28;20427;-83
2022/03/01 08:18:22;;;;;;;9.80;4.17;;;20.50;46.30;;;;;;4989099;28;20474;-82
2022/03/01 08:20:48;;;;;;;9.87;4.73;;;20.50;46.20;;;;;;4982073;28;20195;-82
2022/03/01 08:23:13;;;;;;;8.63;4.60;;;20.50;46.10;;;;;;4984561;28;20179;-82
2022/03/01 08:25:39;;;;;;;11.47;4.70;;;20.50;45.90;;;;;;4983436;28;20185;-82
2022/03/01 08:28:05;;;;;;;8.10;4.30;;;20.50;45.70;;;;;;4981902;28;20209;-81
2022/03/01 08:30:31;;;;;;;10.23;4.43;;;20.50;45.60;;;;;;4982244;28;20290;-79
2022/03/01 08:32:57;;;;;;;9.80;4.47;;;20.60;45.40;;;;;;4999247;28;20207;-81
2022/03/01 08:35:23;;;;;;;12.57;4.63;;;20.50;45.20;;;;;;4983603;28;20453;-78
2022/03/01 08:37:51;;;;;;;10.60;3.90;;;20.50;45.20;;;;;;4982710;28;20414;-81
2022/03/01 08:40:19;;;;;;;10.73;4.30;;;20.50;45.10;;;;;;4982979;28;20831;-81
2022/03/01 08:42:45;;;;;;;10.37;5.10;;;20.50;45.10;;;;;;4981867;28;20525;-81
2022/03/01 08:45:11;;;;;;;9.17;4.90;;;20.50;45.00;;;;;;4983517;28;20430;-84
2022/03/01 08:47:37;;;;;;;7.43;4.00;;;20.50;45.20;;;;;;5003618;28;20433;-81
2022/03/01 08:50:03;;;;;;;12.10;4.00;;;20.50;45.40;;;;;;5014910;28;20199;-78
2022/03/01 08:52:29;;;;;;;8.80;4.07;;;20.60;45.30;;;;;;5002235;28;20542;-81
2022/03/01 08:54:54;;;;;;;7.70;3.93;;;20.70;45.40;;;;;;4999203;28;20439;-81
2022/03/01 08:57:20;;;;;;;9.27;4.70;;;20.60;45.10;;;;;;4988033;28;20217;-81
2022/03/01 08:59:46;;;;;;;8.30;4.03;;;20.60;45.00;;;;;;4991137;28;20202;-81
2022/03/01 09:02:13;;;;;;;14.20;4.30;;;20.60;44.90;;;;;;4988052;28;20258;-79
2022/03/01 09:04:39;;;;;;;7.60;4.30;;;20.60;44.70;;;;;;5001745;28;20168;-79
2022/03/01 09:07:05;;;;;;;8.83;3.90;;;20.60;44.60;;;;;;4986995;28;20427;-82
2022/03/01 09:09:31;;;;;;;12.20;4.30;;;20.70;44.60;;;;;;4984090;28;20558;-80
2022/03/01 09:11:58;;;;;;;7.23;3.70;;;20.70;44.50;;;;;;5004184;28;20298;-82
2022/03/01 09:14:23;;;;;;;12.50;3.90;;;20.80;44.40;;;;;;4993099;28;20445;-79
2022/03/01 09:16:50;;;;;;;6.03;3.63;;;20.80;44.20;;;;;;5010107;28;20426;-78
2022/03/01 09:19:16;;;;;;;6.03;3.80;;;20.90;44.10;;;;;;5008335;28;20167;-80
2022/03/01 09:21:42;;;;;;;8.00;3.97;;;20.90;43.90;;;;;;5002687;28;20464;-78
2022/03/01 09:24:08;;;;;;;8.57;4.03;;;21.00;43.80;;;;;;4991394;28;20189;-78
2022/03/01 09:26:34;;;;;;;6.53;3.80;;;21.20;43.50;;;;;;4997719;28;20406;-79
2022/03/01 09:29:00;;;;;;;20.43;3.93;;;21.30;43.10;;;;;;4996498;28;20178;-78
2022/03/01 09:31:26;;;;;;;6.60;3.70;;;21.50;42.70;;;;;;4996417;28;20426;-79
2022/03/01 09:33:52;;;;;;;8.70;3.93;;;21.50;42.30;;;;;;5002250;28;20209;-78
2022/03/01 09:36:17;;;;;;;8.50;3.77;;;21.60;42.10;;;;;;5017216;28;20193;-79
2022/03/01 09:38:44;;;;;;;7.30;3.70;;;21.70;41.30;;;;;;4979110;28;20291;-79
2022/03/01 09:41:12;;;;;;;6.80;4.17;;;21.80;41.20;;;;;;4979203;28;20198;-79
2022/03/01 09:43:39;;;;;;;9.40;4.40;;;21.80;41.20;;;;;;4979444;28;20438;-79
2022/03/01 09:46:06;;;;;;;6.87;3.90;;;21.80;41.00;;;;;;4996590;28;20434;-79
2022/03/01 09:48:31;;;;;;;13.40;4.10;;;22.00;41.10;;;;;;4996872;28;20842;-78
2022/03/01 09:50:59;;;;;;;8.03;4.10;;;21.90;41.40;;;;;;4978909;28;20497;-79
2022/03/01 09:53:26;;;;;;;11.10;3.83;;;21.90;41.70;;;;;;4978468;28;20202;-78
2022/03/01 09:55:54;;;;;;;9.27;4.00;;;21.90;41.90;;;;;;4978317;28;20500;-79
2022/03/01 09:58:19;;;;;;;10.00;3.90;;;21.90;42.00;;;;;;4998586;28;20426;-78
2022/03/01 10:00:45;;;;;;;10.23;4.17;;;21.90;42.10;;;;;;4995303;28;20446;-79
2022/03/01 10:03:16;;;;;;;6.97;4.00;;;22.00;42.00;;;;;;4996631;28;20342;-79
2022/03/01 10:05:42;;;;;;;9.30;4.27;;;22.10;42.00;;;;;;4979630;28;20433;-79
2022/03/01 10:08:10;;;;;;;11.47;3.77;;;22.10;42.00;;;;;;4997149;28;20587;-80
2022/03/01 10:10:42;;;;;;;11.63;4.20;;;22.20;41.80;;;;;;4996741;28;20924;-81
2022/03/01 10:13:08;;;;;;;10.03;4.53;;;22.20;41.80;;;;;;4980909;28;20542;-80
2022/03/01 10:15:34;;;;;;;6.63;3.33;;;22.20;41.80;;;;;;4980300;28;20778;-81
2022/03/01 10:18:14;;;;;;;6.30;3.73;;;22.20;41.90;;;;;;4997703;28;20453;-80
2022/03/01 10:20:44;;;;;;;5.67;3.77;;;22.20;41.70;;;;;;4979295;28;20512;-80
2022/03/01 10:23:10;;;;;;;8.80;4.20;;;22.30;41.70;;;;;;4998404;28;20465;-81
2022/03/01 10:25:37;;;;;;;8.63;4.10;;;22.20;41.70;;;;;;4998775;28;20420;-81
2022/03/01 10:28:03;;;;;;;7.30;3.83;;;22.10;41.40;;;;;;4980638;28;20469;-79
2022/03/01 10:30:33;;;;;;;5.83;3.03;;;22.20;41.50;;;;;;4996882;28;20442;-79
2022/03/01 10:33:16;;;;;;;8.87;3.67;;;22.20;41.20;;;;;;4980720;28;20257;-80
2022/03/01 10:35:48;;;;;;;5.73;3.07;;;22.30;42.20;;;;;;4966206;28;20426;-79
2022/03/01 10:38:19;;;;;;;10.93;3.80;;;22.30;41.10;;;;;;4999581;28;20407;-80
2022/03/01 10:40:45;;;;;;;8.77;3.70;;;22.30;40.90;;;;;;4998801;28;20515;-80
2022/03/01 10:43:14;;;;;;;7.03;3.30;;;22.00;41.20;;;;;;4999198;28;20850;-78
2022/03/01 10:45:46;;;;;;;6.00;3.47;;;22.20;41.00;;;;;;4981890;28;20179;-80
2022/03/01 10:48:31;;;;;;;6.43;3.30;;;22.30;41.10;;;;;;5001688;28;20532;-78
2022/03/01 10:50:58;;;;;;;4.20;2.90;;;22.10;41.00;;;;;;5000475;28;21029;-79
2022/03/01 10:53:32;;;;;;;6.97;2.87;;;22.20;41.00;;;;;;5000303;28;20521;-78
2022/03/01 10:56:09;;;;;;;5.63;3.30;;;22.20;41.00;;;;;;4982546;28;20430;-79
2022/03/01 10:58:36;;;;;;;18.57;3.40;;;22.10;40.80;;;;;;5000663;28;20512;-77
2022/03/01 11:01:06;;;;;;;8.93;3.60;;;22.20;41.30;;;;;;4999681;28;20446;-78
2022/03/01 11:03:31;;;;;;;14.73;3.40;;;22.20;41.10;;;;;;4982664;28;20537;-78
2022/03/01 11:05:58;;;;;;;16.63;3.93;;;22.30;41.40;;;;;;4997703;28;20465;-75
2022/03/01 11:08:30;;;;;;;10.20;4.33;;;22.30;40.40;;;;;;4974437;28;20194;-75
2022/03/01 11:10:59;;;;;;;9.57;5.53;;;22.20;36.60;;;;;;4991617;28;20458;-75
2022/03/01 11:13:25;;;;;;;7.50;4.90;;;22.10;35.80;;;;;;4992293;28;20458;-75
2022/03/01 11:15:59;;;;;;;7.80;5.00;;;22.10;34.50;;;;;;4985970;28;20815;-75
2022/03/01 11:18:42;;;;;;;8.40;5.23;;;22.00;34.30;;;;;;5003589;28;20406;-75
2022/03/01 11:21:10;;;;;;;5.30;4.07;;;21.90;32.60;;;;;;5013032;28;20504;-78
2022/03/01 11:23:36;;;;;;;11.00;3.60;;;21.80;33.60;;;;;;5014088;28;20471;-78
2022/03/01 11:26:14;;;;;;;6.77;3.60;;;21.90;37.90;;;;;;4996230;28;20429;-77
2022/03/01 11:28:49;;;;;;;5.40;3.47;;;21.90;39.00;;;;;;5013843;28;20761;-77
2022/03/01 11:31:25;;;;;;;8.17;3.23;;;22.00;39.50;;;;;;4996937;28;20991;-76
2022/03/01 11:34:01;;;;;;;7.80;3.60;;;22.10;40.20;;;;;;4991842;28;20552;-77
2022/03/01 11:36:29;;;;;;;9.30;3.40;;;22.10;40.00;;;;;;4994018;28;20437;-77
2022/03/01 11:39:07;;;;;;;8.40;3.20;;;22.10;40.10;;;;;;4993328;28;20731;-76
2022/03/01 11:41:59;;;;;;;5.40;3.20;;;22.10;40.20;;;;;;4993175;28;20472;-77
2022/03/01 11:44:25;;;;;;;6.03;3.77;;;22.10;40.40;;;;;;4992415;28;20414;-77
2022/03/01 11:46:51;;;;;;;4.57;2.87;;;22.10;40.50;;;;;;4975535;28;20953;-76
2022/03/01 11:49:20;;;;;;;4.40;2.83;;;22.20;40.60;;;;;;4975118;28;20418;-76
2022/03/01 11:51:54;;;;;;;5.77;2.90;;;22.10;40.60;;;;;;4975858;28;20838;-76
2022/03/01 11:54:23;;;;;;;6.13;3.00;;;22.20;40.60;;;;;;4993438;28;20509;-77
2022/03/01 11:56:54;;;;;;;4.50;3.17;;;22.20;40.90;;;;;;4979398;28;20422;-77
2022/03/01 11:59:21;;;;;;;5.60;2.60;;;22.20;40.10;;;;;;4992981;28;20418;-77
2022/03/01 12:01:47;;;;;;;4.10;2.60;;;22.20;41.00;;;;;;4993368;28;20438;-76
2022/03/01 12:04:20;;;;;;;6.00;3.07;;;22.20;40.80;;;;;;4993224;28;20421;-77
2022/03/01 12:06:46;;;;;;;2.93;2.20;;;22.20;41.10;;;;;;4993598;28;20691;-76
2022/03/01 12:09:12;;;;;;;5.27;3.43;;;22.30;41.10;;;;;;4992943;28;20506;-77
2022/03/01 12:11:44;;;;;;;4.60;2.53;;;22.30;41.10;;;;;;4975942;28;20674;-77
2022/03/01 12:14:12;;;;;;;4.07;2.73;;;22.30;41.10;;;;;;4975903;28;20568;-77
2022/03/01 12:16:38;;;;;;;5.77;2.80;;;22.40;41.10;;;;;;4976299;28;20770;-77
2022/03/01 12:19:17;;;;;;;3.13;2.20;;;22.50;41.00;;;;;;4974763;28;20445;-77
2022/03/01 12:21:53;;;;;;;2.90;2.03;;;22.50;40.90;;;;;;4975881;28;20866;-77
2022/03/01 12:24:21;;;;;;;4.00;2.57;;;22.50;40.90;;;;;;4993235;28;20485;-77
2022/03/01 12:26:52;;;;;;;4.53;3.00;;;22.60;40.80;;;;;;4993155;28;20411;-77
2022/03/01 12:29:20;;;;;;;5.03;2.50;;;22.70;41.00;;;;;;4991782;28;20431;-77
2022/03/01 12:32:01;;;;;;;5.20;2.80;;;22.60;40.80;;;;;;4991779;28;20450;-77
2022/03/01 12:34:29;;;;;;;4.03;2.30;;;22.60;40.80;;;;;;5011587;28;20909;-77
2022/03/01 12:36:58;;;;;;;2.87;1.87;;;22.70;40.90;;;;;;5006479;28;20418;-77
2022/03/01 12:39:27;;;;;;;4.17;2.57;;;22.70;40.80;;;;;;4991937;28;20422;-77
2022/03/01 12:41:53;;;;;;;4.00;1.93;;;22.70;40.70;;;;;;4992531;28;20421;-77
2022/03/01 12:44:21;;;;;;;4.27;2.30;;;22.80;40.80;;;;;;4997852;28;20479;-77